Kezdőlap
METAR-TAF:

METAR-TAF

Repülőterek :

Albenga, Olaszország

földrajzi szélesség: 44-03N, földrajzi hosszúság: 008-07E, magasság: 45 m

Jelenlegi meteorológiai megfigyelések

A jelentés 36 perccel ezelõtt készült, 11:50 UTC
Keleti szél 5 kt, kelet-északkeleti és délkeleti között változik
Hőmérséklet 15°C
Páratartalom 72%
Légköri nyomás 1014 hPa
Látótávolság 10 km, vagy több
Szakadozott felhőzet 3500 lábon

METAR: LIMG 151150Z 09005KT 060V140 9999 BKN035 15/10 Q1014

Idő: 13:26 (12:26 UTC)


TAF: hiányzik

Meteorológiai megfigyelések és előrejelzések több, mint 4000 repülőtéren (METAR és TAF jelentéseket).

A térképen piros és sárga pontok jelzik az elérhető meteorológiai állomásokat.

Mozgassa az egeret a pont fölött, hogy megjelenjen az állomás neve.

Azután kattintson az időjárási megfigyelések és előrejelzések megtekintéséhez.

A térkép megváltoztatása: kattintson a fekete keresztel jelölt zöld gombra ráközelítéshez, a vonallal jelölt zöld gombra távolításhoz, vagy a zöld nyilakra a szomszédos térképek eléréséhez.


METAR-TAF: